sensor_id;sensor_type;location;lat;lon;timestamp;pressure;altitude;pressure_sealevel;temperature;humidity
45327;BME280;31062;49.678;24.560;2022-08-01T00:00:28;97808.84;;;19.18;74.64
45327;BME280;31062;49.678;24.560;2022-08-01T00:03:14;97710.53;;;18.61;75.01
45327;BME280;31062;49.678;24.560;2022-08-01T00:05:59;97800.34;;;19.16;74.58
45327;BME280;31062;49.678;24.560;2022-08-01T00:08:44;97671.59;;;18.34;74.99
45327;BME280;31062;49.678;24.560;2022-08-01T00:11:30;97741.94;;;18.75;75.07
45327;BME280;31062;49.678;24.560;2022-08-01T00:14:15;97644.81;;;18.13;75.07
45327;BME280;31062;49.678;24.560;2022-08-01T00:17:02;97797.59;;;19.18;74.97
45327;BME280;31062;49.678;24.560;2022-08-01T00:19:51;97781.50;;;19.01;75.23
45327;BME280;31062;49.678;24.560;2022-08-01T00:22:37;97758.31;;;18.81;75.21
45327;BME280;31062;49.678;24.560;2022-08-01T00:25:23;97807.31;;;19.15;75.12
45327;BME280;31062;49.678;24.560;2022-08-01T00:28:18;97730.97;;;18.64;74.88
45327;BME280;31062;49.678;24.560;2022-08-01T00:31:04;97765.41;;;18.84;74.92
45327;BME280;31062;49.678;24.560;2022-08-01T00:33:50;97801.34;;;19.05;74.24
45327;BME280;31062;49.678;24.560;2022-08-01T00:36:35;97718.84;;;18.42;74.89
45327;BME280;31062;49.678;24.560;2022-08-01T00:39:21;97794.28;;;19.04;74.83
45327;BME280;31062;49.678;24.560;2022-08-01T00:42:07;97762.09;;;18.70;74.58
45327;BME280;31062;49.678;24.560;2022-08-01T00:44:53;97804.06;;;19.03;74.84
45327;BME280;31062;49.678;24.560;2022-08-01T00:47:39;97797.00;;;19.02;75.08
45327;BME280;31062;49.678;24.560;2022-08-01T00:50:25;97791.31;;;19.00;74.87
45327;BME280;31062;49.678;24.560;2022-08-01T00:53:11;97631.16;;;17.86;74.41
45327;BME280;31062;49.678;24.560;2022-08-01T00:56:03;97733.34;;;18.54;74.84
45327;BME280;31062;49.678;24.560;2022-08-01T00:58:49;97803.91;;;18.99;74.97
45327;BME280;31062;49.678;24.560;2022-08-01T01:01:35;97760.94;;;18.77;75.14
45327;BME280;31062;49.678;24.560;2022-08-01T01:04:24;97792.47;;;18.93;74.84
45327;BME280;31062;49.678;24.560;2022-08-01T01:12:54;97800.69;;;19.07;74.82
45327;BME280;31062;49.678;24.560;2022-08-01T01:15:51;97736.41;;;18.60;74.61
45327;BME280;31062;49.678;24.560;2022-08-01T01:18:46;97791.38;;;19.02;74.92
45327;BME280;31062;49.678;24.560;2022-08-01T01:24:38;97795.50;;;18.99;75.08
45327;BME280;31062;49.678;24.560;2022-08-01T01:30:19;97727.13;;;18.55;74.55
45327;BME280;31062;49.678;24.560;2022-08-01T01:33:08;97745.06;;;18.66;74.56
45327;BME280;31062;49.678;24.560;2022-08-01T01:36:00;97622.41;;;17.78;74.53
45327;BME280;31062;49.678;24.560;2022-08-01T01:38:56;97747.50;;;18.56;74.80
45327;BME280;31062;49.678;24.560;2022-08-01T01:41:43;97770.53;;;18.70;74.67
45327;BME280;31062;49.678;24.560;2022-08-01T01:44:30;97600.53;;;17.39;74.66
45327;BME280;31062;49.678;24.560;2022-08-01T01:47:17;97745.66;;;18.27;75.15
45327;BME280;31062;49.678;24.560;2022-08-01T01:50:04;97801.88;;;18.47;75.52
45327;BME280;31062;49.678;24.560;2022-08-01T01:52:52;97774.91;;;18.40;75.85
45327;BME280;31062;49.678;24.560;2022-08-01T01:55:40;97783.41;;;18.42;76.31
45327;BME280;31062;49.678;24.560;2022-08-01T01:58:35;97754.56;;;18.21;76.22
45327;BME280;31062;49.678;24.560;2022-08-01T02:01:25;97784.84;;;18.43;76.20
45327;BME280;31062;49.678;24.560;2022-08-01T02:04:35;97750.31;;;18.20;75.79
45327;BME280;31062;49.678;24.560;2022-08-01T02:07:24;97777.06;;;18.41;75.56
45327;BME280;31062;49.678;24.560;2022-08-01T02:10:11;97744.44;;;18.14;75.66
45327;BME280;31062;49.678;24.560;2022-08-01T02:12:59;97786.28;;;18.44;75.36
45327;BME280;31062;49.678;24.560;2022-08-01T02:15:47;97780.34;;;18.35;75.85
45327;BME280;31062;49.678;24.560;2022-08-01T02:18:44;97633.47;;;17.40;75.75
45327;BME280;31062;49.678;24.560;2022-08-01T02:21:35;97785.19;;;18.51;75.74
45327;BME280;31062;49.678;24.560;2022-08-01T02:24:35;97784.13;;;18.42;75.81
45327;BME280;31062;49.678;24.560;2022-08-01T02:27:41;97765.69;;;18.37;75.84
45327;BME280;31062;49.678;24.560;2022-08-01T02:30:33;97660.53;;;17.67;75.55
45327;BME280;31062;49.678;24.560;2022-08-01T02:33:24;97757.22;;;18.35;75.59
45327;BME280;31062;49.678;24.560;2022-08-01T02:36:12;97798.34;;;18.64;75.50
45327;BME280;31062;49.678;24.560;2022-08-01T02:39:21;97790.56;;;18.62;75.21
45327;BME280;31062;49.678;24.560;2022-08-01T02:42:11;97767.03;;;18.18;75.34
45327;BME280;31062;49.678;24.560;2022-08-01T02:45:00;97796.66;;;18.57;75.45
45327;BME280;31062;49.678;24.560;2022-08-01T02:47:48;97684.00;;;17.76;75.66
45327;BME280;31062;49.678;24.560;2022-08-01T02:50:35;97645.75;;;17.49;75.81
45327;BME280;31062;49.678;24.560;2022-08-01T02:53:24;97802.38;;;18.59;76.12
45327;BME280;31062;49.678;24.560;2022-08-01T02:56:29;97671.19;;;17.71;75.89
45327;BME280;31062;49.678;24.560;2022-08-01T02:59:23;97812.16;;;18.58;75.65
45327;BME280;31062;49.678;24.560;2022-08-01T03:02:12;97802.91;;;18.55;75.73
45327;BME280;31062;49.678;24.560;2022-08-01T03:04:59;97764.66;;;18.28;75.63
45327;BME280;31062;49.678;24.560;2022-08-01T03:07:46;97796.94;;;18.47;75.90
45327;BME280;31062;49.678;24.560;2022-08-01T03:10:36;97793.69;;;18.53;75.74
45327;BME280;31062;49.678;24.560;2022-08-01T03:13:24;97745.81;;;18.13;75.51
45327;BME280;31062;49.678;24.560;2022-08-01T03:16:14;97748.06;;;18.17;75.80
45327;BME280;31062;49.678;24.560;2022-08-01T03:19:04;97752.78;;;18.12;75.47
45327;BME280;31062;49.678;24.560;2022-08-01T03:21:53;97689.53;;;17.74;75.28
45327;BME280;31062;49.678;24.560;2022-08-01T03:24:42;97776.59;;;18.29;75.28
45327;BME280;31062;49.678;24.560;2022-08-01T03:27:36;97746.84;;;18.04;75.09
45327;BME280;31062;49.678;24.560;2022-08-01T03:30:26;97650.50;;;17.29;75.02
45327;BME280;31062;49.678;24.560;2022-08-01T03:33:12;97796.69;;;18.23;75.40
45327;BME280;31062;49.678;24.560;2022-08-01T03:36:00;97802.16;;;18.19;75.29
45327;BME280;31062;49.678;24.560;2022-08-01T03:38:48;97645.88;;;17.02;75.82
45327;BME280;31062;49.678;24.560;2022-08-01T03:41:39;97686.28;;;17.30;76.26
45327;BME280;31062;49.678;24.560;2022-08-01T03:44:27;97847.84;;;18.22;76.40
45327;BME280;31062;49.678;24.560;2022-08-01T03:47:16;97660.41;;;17.14;76.34
45327;BME280;31062;49.678;24.560;2022-08-01T03:50:05;97836.31;;;18.31;76.09
45327;BME280;31062;49.678;24.560;2022-08-01T03:52:58;97819.47;;;18.31;75.87
45327;BME280;31062;49.678;24.560;2022-08-01T03:55:44;97808.25;;;18.31;76.07
45327;BME280;31062;49.678;24.560;2022-08-01T03:58:30;97749.63;;;17.86;76.03
45327;BME280;31062;49.678;24.560;2022-08-01T04:01:16;97828.53;;;18.48;76.09
45327;BME280;31062;49.678;24.560;2022-08-01T04:04:03;97664.78;;;17.35;75.85
45327;BME280;31062;49.678;24.560;2022-08-01T04:06:51;97834.41;;;18.54;76.00
45327;BME280;31062;49.678;24.560;2022-08-01T04:09:39;97833.88;;;18.57;75.65
45327;BME280;31062;49.678;24.560;2022-08-01T04:12:27;97838.88;;;18.59;75.40
45327;BME280;31062;49.678;24.560;2022-08-01T04:15:13;97846.19;;;18.50;75.62
45327;BME280;31062;49.678;24.560;2022-08-01T04:17:59;97838.88;;;18.59;75.57
45327;BME280;31062;49.678;24.560;2022-08-01T04:20:46;97830.25;;;18.55;75.62
45327;BME280;31062;49.678;24.560;2022-08-01T04:23:34;97673.44;;;17.41;75.66
45327;BME280;31062;49.678;24.560;2022-08-01T04:26:21;97745.63;;;17.91;75.44
45327;BME280;31062;49.678;24.560;2022-08-01T04:29:08;97768.00;;;18.07;75.80
45327;BME280;31062;49.678;24.560;2022-08-01T04:31:55;97833.16;;;18.57;75.74
45327;BME280;31062;49.678;24.560;2022-08-01T04:34:44;97681.94;;;17.43;75.46
45327;BME280;31062;49.678;24.560;2022-08-01T04:37:32;97672.81;;;17.42;75.84
45327;BME280;31062;49.678;24.560;2022-08-01T04:40:20;97840.13;;;18.56;76.12
45327;BME280;31062;49.678;24.560;2022-08-01T04:43:09;97837.31;;;18.56;76.17
45327;BME280;31062;49.678;24.560;2022-08-01T04:45:57;97822.66;;;18.57;75.43
45327;BME280;31062;49.678;24.560;2022-08-01T04:48:43;97826.81;;;18.56;75.84
45327;BME280;31062;49.678;24.560;2022-08-01T04:51:30;97783.63;;;18.30;75.83
45327;BME280;31062;49.678;24.560;2022-08-01T04:54:16;97673.94;;;17.53;76.03
45327;BME280;31062;49.678;24.560;2022-08-01T04:57:03;97833.31;;;18.61;76.29
45327;BME280;31062;49.678;24.560;2022-08-01T04:59:49;97701.59;;;17.61;76.41
45327;BME280;31062;49.678;24.560;2022-08-01T05:02:42;97839.50;;;18.57;75.98
45327;BME280;31062;49.678;24.560;2022-08-01T05:05:28;97791.09;;;18.23;76.26
45327;BME280;31062;49.678;24.560;2022-08-01T05:08:15;97829.50;;;18.54;76.18
45327;BME280;31062;49.678;24.560;2022-08-01T05:11:01;97815.66;;;18.41;75.68
45327;BME280;31062;49.678;24.560;2022-08-01T05:13:47;97830.44;;;18.59;75.33
45327;BME280;31062;49.678;24.560;2022-08-01T05:16:33;97835.97;;;18.57;75.33
45327;BME280;31062;49.678;24.560;2022-08-01T05:19:20;97829.00;;;18.58;75.15
45327;BME280;31062;49.678;24.560;2022-08-01T05:22:08;97827.56;;;18.57;75.41
45327;BME280;31062;49.678;24.560;2022-08-01T05:24:54;97742.19;;;17.93;75.17
45327;BME280;31062;49.678;24.560;2022-08-01T05:27:41;97823.19;;;18.54;75.29
45327;BME280;31062;49.678;24.560;2022-08-01T05:30:28;97731.75;;;17.78;75.29
45327;BME280;31062;49.678;24.560;2022-08-01T05:33:14;97834.34;;;18.52;75.89
45327;BME280;31062;49.678;24.560;2022-08-01T05:36:00;97865.94;;;18.52;76.12
45327;BME280;31062;49.678;24.560;2022-08-01T05:38:46;97837.31;;;18.56;76.42
45327;BME280;31062;49.678;24.560;2022-08-01T05:41:32;97833.16;;;18.57;76.18
45327;BME280;31062;49.678;24.560;2022-08-01T05:44:18;97831.13;;;18.59;75.93
45327;BME280;31062;49.678;24.560;2022-08-01T05:47:04;97684.41;;;17.52;75.86
45327;BME280;31062;49.678;24.560;2022-08-01T05:49:50;97837.47;;;18.60;75.70
45327;BME280;31062;49.678;24.560;2022-08-01T05:52:36;97796.53;;;18.19;76.43
45327;BME280;31062;49.678;24.560;2022-08-01T05:55:21;97786.94;;;18.24;75.89
45327;BME280;31062;49.678;24.560;2022-08-01T05:58:07;97812.91;;;18.43;76.28
45327;BME280;31062;49.678;24.560;2022-08-01T06:00:57;97706.38;;;17.74;75.34
45327;BME280;31062;49.678;24.560;2022-08-01T06:03:43;97640.03;;;17.29;75.29
45327;BME280;31062;49.678;24.560;2022-08-01T06:06:30;97840.28;;;18.77;75.66
45327;BME280;31062;49.678;24.560;2022-08-01T06:09:17;97841.00;;;18.78;75.51
45327;BME280;31062;49.678;24.560;2022-08-01T06:12:02;97824.00;;;18.74;75.77
45327;BME280;31062;49.678;24.560;2022-08-01T06:14:49;97838.44;;;18.84;75.58
45327;BME280;31062;49.678;24.560;2022-08-01T06:17:35;97793.28;;;18.60;75.25
45327;BME280;31062;49.678;24.560;2022-08-01T06:20:21;97885.44;;;19.01;74.68
45327;BME280;31062;49.678;24.560;2022-08-01T06:23:08;97716.41;;;18.14;75.22
45327;BME280;31062;49.678;24.560;2022-08-01T06:26:17;97689.22;;;18.01;74.73
45327;BME280;31062;49.678;24.560;2022-08-01T06:29:03;97834.38;;;19.07;74.01
45327;BME280;31062;49.678;24.560;2022-08-01T06:31:48;97841.41;;;19.06;73.41
45327;BME280;31062;49.678;24.560;2022-08-01T06:34:34;97841.41;;;19.06;73.71
45327;BME280;31062;49.678;24.560;2022-08-01T06:37:19;97830.34;;;18.92;74.03
45327;BME280;31062;49.678;24.560;2022-08-01T06:40:10;97840.66;;;19.05;74.87
45327;BME280;31062;49.678;24.560;2022-08-01T06:43:01;97833.91;;;19.12;75.75
45327;BME280;31062;49.678;24.560;2022-08-01T06:45:47;97839.09;;;19.20;75.21
45327;BME280;31062;49.678;24.560;2022-08-01T06:48:33;97808.66;;;18.95;75.01
45327;BME280;31062;49.678;24.560;2022-08-01T06:51:20;97803.91;;;18.99;73.90
45327;BME280;31062;49.678;24.560;2022-08-01T06:54:08;97814.56;;;19.03;74.84
45327;BME280;31062;49.678;24.560;2022-08-01T06:56:54;97835.06;;;19.25;74.77
45327;BME280;31062;49.678;24.560;2022-08-01T06:59:40;97840.91;;;19.31;74.78
45327;BME280;31062;49.678;24.560;2022-08-01T07:02:38;97789.78;;;18.97;74.38
45327;BME280;31062;49.678;24.560;2022-08-01T07:05:24;97856.72;;;19.40;75.02
45327;BME280;31062;49.678;24.560;2022-08-01T07:08:10;97694.19;;;18.38;74.20
45327;BME280;31062;49.678;24.560;2022-08-01T07:10:55;97853.44;;;19.46;73.69
45327;BME280;31062;49.678;24.560;2022-08-01T07:13:44;97852.13;;;19.49;74.15
45327;BME280;31062;49.678;24.560;2022-08-01T07:16:33;97832.88;;;19.41;74.10
45327;BME280;31062;49.678;24.560;2022-08-01T07:19:19;97676.75;;;18.42;73.66
45327;BME280;31062;49.678;24.560;2022-08-01T07:22:04;97814.47;;;19.38;74.13
45327;BME280;31062;49.678;24.560;2022-08-01T07:24:50;97834.41;;;19.64;73.16
45327;BME280;31062;49.678;24.560;2022-08-01T07:27:38;97720.50;;;18.84;72.82
45327;BME280;31062;49.678;24.560;2022-08-01T07:30:24;97682.69;;;18.67;72.76
45327;BME280;31062;49.678;24.560;2022-08-01T07:33:11;97838.22;;;19.73;73.05
45327;BME280;31062;49.678;24.560;2022-08-01T07:35:58;97844.00;;;19.77;72.67
45327;BME280;31062;49.678;24.560;2022-08-01T07:38:44;97836.44;;;19.81;72.54
45327;BME280;31062;49.678;24.560;2022-08-01T07:41:30;97840.75;;;19.84;71.93
45327;BME280;31062;49.678;24.560;2022-08-01T07:44:37;97788.91;;;19.50;71.99
45327;BME280;31062;49.678;24.560;2022-08-01T07:47:26;97883.00;;;19.86;71.23
45327;BME280;31062;49.678;24.560;2022-08-01T07:50:12;97846.38;;;19.84;71.27
45327;BME280;31062;49.678;24.560;2022-08-01T07:52:58;97850.56;;;19.83;71.85
45327;BME280;31062;49.678;24.560;2022-08-01T07:55:44;97825.91;;;19.62;72.32
45327;BME280;31062;49.678;24.560;2022-08-01T07:58:32;97854.75;;;19.82;72.22
45327;BME280;31062;49.678;24.560;2022-08-01T08:01:19;97857.47;;;19.80;71.89
45327;BME280;31062;49.678;24.560;2022-08-01T08:04:05;97866.28;;;19.71;71.51
45327;BME280;31062;49.678;24.560;2022-08-01T08:06:58;97866.56;;;19.59;72.10
45327;BME280;31062;49.678;24.560;2022-08-01T08:09:48;97793.97;;;18.96;72.29
45327;BME280;31062;49.678;24.560;2022-08-01T08:12:36;97860.03;;;19.35;72.52
45327;BME280;31062;49.678;24.560;2022-08-01T08:15:22;97868.59;;;19.39;73.07
45327;BME280;31062;49.678;24.560;2022-08-01T08:18:08;97828.06;;;19.06;72.72
45327;BME280;31062;49.678;24.560;2022-08-01T08:20:54;97810.66;;;18.92;72.84
45327;BME280;31062;49.678;24.560;2022-08-01T08:23:40;97869.81;;;19.34;72.56
45327;BME280;31062;49.678;24.560;2022-08-01T08:26:44;97826.22;;;18.95;73.41
45327;BME280;31062;49.678;24.560;2022-08-01T08:29:30;97717.69;;;18.29;73.60
45327;BME280;31062;49.678;24.560;2022-08-01T08:32:17;97712.88;;;18.31;73.30
45327;BME280;31062;49.678;24.560;2022-08-01T08:35:05;97888.63;;;19.47;73.46
45327;BME280;31062;49.678;24.560;2022-08-01T08:37:52;97784.28;;;18.82;74.23
45327;BME280;31062;49.678;24.560;2022-08-01T08:40:42;97875.75;;;19.42;73.44
45327;BME280;31062;49.678;24.560;2022-08-01T08:43:28;97726.97;;;18.33;73.48
45327;BME280;31062;49.678;24.560;2022-08-01T08:46:14;97887.00;;;19.42;73.19
45327;BME280;31062;49.678;24.560;2022-08-01T08:49:02;97747.50;;;18.38;73.61
45327;BME280;31062;49.678;24.560;2022-08-01T08:51:58;97880.84;;;19.28;73.75
45327;BME280;31062;49.678;24.560;2022-08-01T08:54:45;97883.50;;;19.24;74.33
45327;BME280;31062;49.678;24.560;2022-08-01T08:57:31;97738.34;;;18.20;74.45
45327;BME280;31062;49.678;24.560;2022-08-01T09:00:18;97901.97;;;19.29;74.73
45327;BME280;31062;49.678;24.560;2022-08-01T09:03:04;97899.78;;;19.27;75.03
45327;BME280;31062;49.678;24.560;2022-08-01T09:05:49;97772.19;;;18.42;74.70
45327;BME280;31062;49.678;24.560;2022-08-01T09:08:35;97899.22;;;19.31;75.28
45327;BME280;31062;49.678;24.560;2022-08-01T09:11:21;97909.41;;;19.40;75.62
45327;BME280;31062;49.678;24.560;2022-08-01T09:14:18;97925.38;;;19.53;75.36
45327;BME280;31062;49.678;24.560;2022-08-01T09:17:12;97758.88;;;18.60;75.46
45327;BME280;31062;49.678;24.560;2022-08-01T09:19:58;97868.81;;;19.45;73.93
45327;BME280;31062;49.678;24.560;2022-08-01T09:22:44;97906.38;;;19.71;73.99
45327;BME280;31062;49.678;24.560;2022-08-01T09:25:50;97931.69;;;19.71;73.77
45327;BME280;31062;49.678;24.560;2022-08-01T09:28:37;97903.47;;;19.69;73.07
45327;BME280;31062;49.678;24.560;2022-08-01T09:31:26;97910.56;;;19.70;73.53
45327;BME280;31062;49.678;24.560;2022-08-01T09:34:29;97907.81;;;19.72;74.03
45327;BME280;31062;49.678;24.560;2022-08-01T09:37:29;97911.41;;;19.75;73.93
45327;BME280;31062;49.678;24.560;2022-08-01T09:40:51;97769.91;;;18.91;74.53
45327;BME280;31062;49.678;24.560;2022-08-01T09:43:38;97905.94;;;19.98;74.71
45327;BME280;31062;49.678;24.560;2022-08-01T09:46:24;97908.25;;;20.04;73.86
45327;BME280;31062;49.678;24.560;2022-08-01T09:49:13;97754.94;;;19.04;74.19
45327;BME280;31062;49.678;24.560;2022-08-01T09:52:12;97911.91;;;20.09;73.09
45327;BME280;31062;49.678;24.560;2022-08-01T09:55:00;97886.47;;;20.05;72.84
45327;BME280;31062;49.678;24.560;2022-08-01T09:57:56;97808.31;;;19.62;71.96
45327;BME280;31062;49.678;24.560;2022-08-01T10:00:57;97714.03;;;18.99;73.18
45327;BME280;31062;49.678;24.560;2022-08-01T10:03:45;97912.09;;;20.54;72.01
45327;BME280;31062;49.678;24.560;2022-08-01T10:06:31;97902.69;;;20.67;72.53
45327;BME280;31062;49.678;24.560;2022-08-01T10:09:29;97915.31;;;20.88;70.52
45327;BME280;31062;49.678;24.560;2022-08-01T10:12:24;97932.16;;;21.08;70.03
45327;BME280;31062;49.678;24.560;2022-08-01T10:15:10;97873.50;;;21.02;67.70
45327;BME280;31062;49.678;24.560;2022-08-01T10:18:01;97900.94;;;21.24;67.83
45327;BME280;31062;49.678;24.560;2022-08-01T10:20:47;97919.84;;;21.19;68.06
45327;BME280;31062;49.678;24.560;2022-08-01T10:23:35;97903.03;;;21.23;68.64
45327;BME280;31062;49.678;24.560;2022-08-01T10:26:25;97918.66;;;21.26;68.14
45327;BME280;31062;49.678;24.560;2022-08-01T10:29:15;97779.56;;;20.48;68.68
45327;BME280;31062;49.678;24.560;2022-08-01T10:32:23;97881.94;;;21.24;67.79
45327;BME280;31062;49.678;24.560;2022-08-01T10:35:13;97897.78;;;21.35;68.73
45327;BME280;31062;49.678;24.560;2022-08-01T10:38:22;97747.56;;;20.38;69.43
45327;BME280;31062;49.678;24.560;2022-08-01T10:41:13;97888.91;;;21.45;68.93
45327;BME280;31062;49.678;24.560;2022-08-01T10:44:03;97770.44;;;20.50;68.17
45327;BME280;31062;49.678;24.560;2022-08-01T10:46:52;97862.69;;;20.95;68.54
45327;BME280;31062;49.678;24.560;2022-08-01T10:49:47;97793.47;;;20.42;68.06
45327;BME280;31062;49.678;24.560;2022-08-01T10:52:36;97756.59;;;20.12;68.07
45327;BME280;31062;49.678;24.560;2022-08-01T10:55:24;97907.44;;;21.06;68.62
45327;BME280;31062;49.678;24.560;2022-08-01T10:58:10;97875.59;;;20.80;69.83
45327;BME280;31062;49.678;24.560;2022-08-01T11:04:12;97903.25;;;21.07;68.72
45327;BME280;31062;49.678;24.560;2022-08-01T11:07:13;97908.28;;;21.11;68.50
45327;BME280;31062;49.678;24.560;2022-08-01T11:10:14;97767.84;;;20.12;67.89
45327;BME280;31062;49.678;24.560;2022-08-01T11:13:00;97916.28;;;21.18;67.51
45327;BME280;31062;49.678;24.560;2022-08-01T11:15:49;97912.69;;;21.16;68.37
45327;BME280;31062;49.678;24.560;2022-08-01T11:18:36;97910.59;;;21.16;67.49
45327;BME280;31062;49.678;24.560;2022-08-01T11:27:35;97922.91;;;21.05;69.04
45327;BME280;31062;49.678;24.560;2022-08-01T11:30:22;97780.78;;;20.00;69.46
45327;BME280;31062;49.678;24.560;2022-08-01T11:33:08;97937.63;;;21.04;70.43
45327;BME280;31062;49.678;24.560;2022-08-01T11:39:26;97910.81;;;20.79;71.63
45327;BME280;31062;49.678;24.560;2022-08-01T11:42:18;97876.94;;;20.55;71.28
45327;BME280;31062;49.678;24.560;2022-08-01T11:45:06;97879.16;;;20.59;71.64
45327;BME280;31062;49.678;24.560;2022-08-01T11:48:01;97907.13;;;20.74;71.83
45327;BME280;31062;49.678;24.560;2022-08-01T11:51:15;97935.69;;;20.87;71.79
45327;BME280;31062;49.678;24.560;2022-08-01T11:54:10;97928.59;;;20.86;72.04
45327;BME280;31062;49.678;24.560;2022-08-01T11:57:00;97886.88;;;20.36;72.34
45327;BME280;31062;49.678;24.560;2022-08-01T11:59:55;97935.75;;;20.89;71.91
45327;BME280;31062;49.678;24.560;2022-08-01T12:03:04;97922.19;;;20.83;72.82
45327;BME280;31062;49.678;24.560;2022-08-01T12:05:52;97928.59;;;20.86;72.67
45327;BME280;31062;49.678;24.560;2022-08-01T12:08:39;97934.44;;;20.92;72.70
45327;BME280;31062;49.678;24.560;2022-08-01T12:11:27;97897.75;;;20.68;71.93
45327;BME280;31062;49.678;24.560;2022-08-01T12:14:21;97934.19;;;20.84;71.66
45327;BME280;31062;49.678;24.560;2022-08-01T12:17:08;97900.84;;;20.54;71.99
45327;BME280;31062;49.678;24.560;2022-08-01T12:19:54;97937.34;;;20.72;71.97
45327;BME280;31062;49.678;24.560;2022-08-01T12:22:43;97942.16;;;20.69;72.41
45327;BME280;31062;49.678;24.560;2022-08-01T12:25:31;97944.97;;;20.69;72.77
45327;BME280;31062;49.678;24.560;2022-08-01T12:28:22;97945.13;;;20.73;72.63
45327;BME280;31062;49.678;24.560;2022-08-01T12:31:12;97944.25;;;20.69;72.83
45327;BME280;31062;49.678;24.560;2022-08-01T12:34:27;97947.34;;;20.55;73.07
45327;BME280;31062;49.678;24.560;2022-08-01T12:37:17;97956.16;;;20.46;73.26
45327;BME280;31062;49.678;24.560;2022-08-01T12:40:16;97956.59;;;20.38;73.71
45327;BME280;31062;49.678;24.560;2022-08-01T12:43:05;97806.25;;;19.25;73.72
45327;BME280;31062;49.678;24.560;2022-08-01T12:45:54;97958.94;;;20.26;74.12
45327;BME280;31062;49.678;24.560;2022-08-01T12:48:43;97953.19;;;20.22;74.38
45327;BME280;31062;49.678;24.560;2022-08-01T12:51:30;97957.31;;;20.19;74.43
45327;BME280;31062;49.678;24.560;2022-08-01T12:54:18;97958.59;;;20.16;74.61
45327;BME280;31062;49.678;24.560;2022-08-01T12:57:05;97958.56;;;20.14;74.03
45327;BME280;31062;49.678;24.560;2022-08-01T13:00:25;97931.03;;;19.92;74.02
45327;BME280;31062;49.678;24.560;2022-08-01T13:03:14;97948.38;;;20.05;73.61
45327;BME280;31062;49.678;24.560;2022-08-01T13:06:00;97810.81;;;18.96;73.56
45327;BME280;31062;49.678;24.560;2022-08-01T13:08:46;97905.53;;;19.49;74.44
45327;BME280;31062;49.678;24.560;2022-08-01T13:11:32;97939.47;;;19.92;74.56
45327;BME280;31062;49.678;24.560;2022-08-01T13:14:28;97910.56;;;19.70;74.30
45327;BME280;31062;49.678;24.560;2022-08-01T13:17:30;97938.25;;;19.97;74.53
45327;BME280;31062;49.678;24.560;2022-08-01T13:20:27;97888.97;;;19.57;74.91
45327;BME280;31062;49.678;24.560;2022-08-01T13:23:18;97954.00;;;20.05;74.96
45327;BME280;31062;49.678;24.560;2022-08-01T13:29:36;97944.75;;;20.22;74.85
45327;BME280;31062;49.678;24.560;2022-08-01T13:32:31;97906.66;;;19.99;74.50
45327;BME280;31062;49.678;24.560;2022-08-01T13:35:20;97930.75;;;20.24;74.60
45327;BME280;31062;49.678;24.560;2022-08-01T13:38:08;97932.19;;;20.25;74.68
45327;BME280;31062;49.678;24.560;2022-08-01T13:40:58;97944.16;;;20.45;74.96
45327;BME280;31062;49.678;24.560;2022-08-01T13:43:44;97961.00;;;20.43;74.79
45327;BME280;31062;49.678;24.560;2022-08-01T13:46:45;97966.34;;;20.35;75.51
45327;BME280;31062;49.678;24.560;2022-08-01T13:49:35;97852.97;;;19.34;76.43
45327;BME280;31062;49.678;24.560;2022-08-01T13:52:25;97808.25;;;18.85;77.15
45327;BME280;31062;49.678;24.560;2022-08-01T13:55:11;97981.38;;;19.84;77.83
45327;BME280;31062;49.678;24.560;2022-08-01T13:57:58;97970.56;;;19.77;78.35
45327;BME280;31062;49.678;24.560;2022-08-01T14:00:44;97981.91;;;19.61;78.48
45327;BME280;31062;49.678;24.560;2022-08-01T14:03:32;97979.50;;;19.71;79.03
45327;BME280;31062;49.678;24.560;2022-08-01T14:06:19;97884.03;;;19.00;78.20
45327;BME280;31062;49.678;24.560;2022-08-01T14:09:08;97985.84;;;19.72;78.07
45327;BME280;31062;49.678;24.560;2022-08-01T14:12:03;97949.75;;;19.46;77.88
45327;BME280;31062;49.678;24.560;2022-08-01T14:14:52;98000.09;;;19.58;77.84
45327;BME280;31062;49.678;24.560;2022-08-01T14:17:37;97852.97;;;18.79;78.42
45327;BME280;31062;49.678;24.560;2022-08-01T14:20:32;97844.06;;;18.84;78.12
45327;BME280;31062;49.678;24.560;2022-08-01T14:23:18;97985.81;;;19.89;78.10
45327;BME280;31062;49.678;24.560;2022-08-01T14:26:07;97999.16;;;20.09;77.48
45327;BME280;31062;49.678;24.560;2022-08-01T14:28:57;98003.50;;;20.12;77.03
45327;BME280;31062;49.678;24.560;2022-08-01T14:31:43;97996.28;;;20.07;76.89
45327;BME280;31062;49.678;24.560;2022-08-01T14:34:28;98002.63;;;20.27;76.80
45327;BME280;31062;49.678;24.560;2022-08-01T14:37:14;97984.00;;;20.18;76.20
45327;BME280;31062;49.678;24.560;2022-08-01T14:40:01;97963.97;;;20.08;76.42
45327;BME280;31062;49.678;24.560;2022-08-01T14:42:54;97995.88;;;20.34;76.18
45327;BME280;31062;49.678;24.560;2022-08-01T14:45:40;97995.44;;;20.42;76.68
45327;BME280;31062;49.678;24.560;2022-08-01T14:48:26;97992.25;;;20.51;75.81
45327;BME280;31062;49.678;24.560;2022-08-01T14:51:14;97992.25;;;20.51;75.46
45327;BME280;31062;49.678;24.560;2022-08-01T14:54:01;97967.56;;;20.30;75.30
45327;BME280;31062;49.678;24.560;2022-08-01T14:56:48;97996.28;;;20.66;74.56
45327;BME280;31062;49.678;24.560;2022-08-01T14:59:34;98004.94;;;20.72;74.02
45327;BME280;31062;49.678;24.560;2022-08-01T15:02:22;97972.19;;;20.41;73.68
45327;BME280;31062;49.678;24.560;2022-08-01T15:05:08;98004.66;;;20.64;74.00
45327;BME280;31062;49.678;24.560;2022-08-01T15:07:54;97927.59;;;20.14;74.21
45327;BME280;31062;49.678;24.560;2022-08-01T15:10:41;97879.53;;;19.68;74.48
45327;BME280;31062;49.678;24.560;2022-08-01T15:13:29;98015.06;;;20.59;74.28